Keizer, Oregon
Current Conditions -  °F | °C
As of 10:56 PM on Saturday 25 Oct 2014 (Local Time) from KSLE Reporting Station
Scattered Clouds Scattered Clouds  
Wind Chill: 52°   Ceiling: Unl
Heat Index: 52°   Visibility: 10mi
Dew Point: 48°   Wind: 14mph
Humidity: 86%   Direction: 190°S
Pressure: 29.92"   Gusts: NA
Location:  45°N, 123.02°W
Report Text: KSLE 260556Z AUTO 19012KT 10SM SCT055 SCT090 11/09 A2992 RMK AO2 RAB09E48 SLP131 P0001 60011 T01110089 10144 20111 53032
Loading
Personal Weather Stations






























Interactive Weather Map
Tropical Storm Tracking
New forecast layout! Learn more

10-Day Weather Forecast

Advertisements
Track Severe Weather on mobile